Ankara, Turkey

7:35 AM EEST on July 31, 2014 (GMT +0300)
Esenboga (LTAC) Elev 3114 ft | 40.13 °N, 33.00 °E | Change Station

Current weather conditions updated 15 minutes ago

Clear
Clear
66 °F
Feels Like 66 °F
N
2
Wind Variable Wind from Variable

Today is forecast to be nearly the same temperature as yesterday.

Today
High -- | Low -- °F
--% Chance of Precip.
Yesterday
High -- | Low -- °F
Precip. -- in
5:44 AM 8:03 PM
Waxing Crescent, 16% visible
Pressure 29.92 in
Visibility -9999.0 miles
Clouds
Dew Point 54 °F
Humidity 64%
Rainfall 0.00 in
Snow Depth Not available.
UV Not available.
Pollen Not available.
Air Quality Not available.
Flu Activity Not available.
METAR LTAC 310420Z VRB02KT CAVOK 19/12 Q1013 NOSIG RMK RWY21L 14003KT 060V180 RWY03L VRB01KT RWY21R VRB02KT

More Conditions Fewer Conditions

Pressure 29.92 in
Visibility -9999.0 miles
Clouds
Dew Point 54 °F
Humidity 64%
Rainfall 0.00 in
Snow Depth Not available.
UV Not available.
Pollen Not available.
Air Quality Not available.
Flu Activity Not available.
METAR LTAC 310420Z VRB02KT CAVOK 19/12 Q1013 NOSIG RMK RWY21L 14003KT 060V180 RWY03L VRB01KT RWY21R VRB02KT

More Conditions Fewer Conditions

10-Day Weather Forecast

Almanac

Astronomy

Jul. 31, 2014 Rise Set
Actual Time 5:44 AM EEST 8:03 PM EEST
Civil Twilight 5:14 AM EEST 8:33 PM EEST
Nautical Twilight 4:36 AM EEST 9:11 PM EEST
Astronomical Twilight 3:55 AM EEST 9:52 PM EEST
Moon 9:53 AM EEST 10:05 PM EEST
Length of Visible Light 15h 19m
Length of Day
14h 18m
Tomorrow will be 1m 59s shorter.
Waxing Crescent, 16% of the Moon is Illuminated
Today
Waxing Crescent
Aug 3
First Quarter
Aug 10
Full
Aug 17
Last Quarter
Aug 25
New

Yesterday's Extremes

Country Highs Country Lows

Community

WunderPhotos

Upload Photos

1,739,239 photos uploaded!

Nearby

Snow Depth

Not available.

Earthquake Activity

City Distance Mag. Time & Date
No recent earthquake activity has been reported nearby.
Minimum magnitude displayed is 2.5.

Coastal Water Temperatures

Place Temperature
No Stations Reporting

Nearby Weather Stations

There are no personal weather stations in this area.